ADDS METAR Data INFO
IDs: Format: Raw Decoded Include TAF

Data at: 0227 UTC 26 Jul 2017

KMNZ 260215Z AUTO 14007KT 10SM CLR 31/19 A3004 RMK AO2 T03110186
KMNZ 260155Z AUTO 14006KT 10SM CLR 31/18 A3004 RMK AO2 T03140181
KMNZ 260135Z AUTO 15006KT 10SM CLR 32/18 A3004 RMK AO2 T03220175
KMNZ 260115Z AUTO 16006KT 10SM CLR 33/17 A3004 RMK AO2 T03310173
KMNZ 260055Z AUTO 16008KT 10SM CLR 34/17 A3004 RMK AO2 T03410167
KMNZ 260035Z AUTO 16010KT 10SM CLR 35/17 A3004 RMK AO2 T03460165
KMNZ 260015Z AUTO 19007KT 10SM SCT070 35/16 A3004 RMK AO2 T03480162
KMNZ 252355Z AUTO 19010KT 10SM BKN070 36/16 A3003 RMK AO2 T03550163 10366 20332
KMNZ 252335Z AUTO 19009KT 10SM SCT070 36/16 A3003 RMK AO2 T03580162
KMNZ 252315Z AUTO 15009KT 10SM CLR 36/16 A3003 RMK AO2 T03600161
KMNZ 252255Z AUTO 17009G15KT 10SM CLR 36/17 A3003 RMK AO2 T03610165
KMNZ 252235Z AUTO 15010G15KT 10SM CLR 36/17 A3004 RMK AO2 T03610166
KMNZ 252215Z AUTO 17010KT 10SM CLR 36/17 A3004 RMK AO2 T03560167
KMNZ 252155Z AUTO 16012G16KT 10SM SCT070 36/17 A3005 RMK AO2 T03640172
KMNZ 252135Z AUTO 15010G16KT 10SM SCT060 36/17 A3005 RMK AO2 T03640167
KMNZ 252115Z AUTO 16013G16KT 10SM SCT060 37/17 A3006 RMK AO2 T03650170
KMNZ 252055Z AUTO 15006G19KT 10SM CLR 36/17 A3006 RMK AO2 T03600170
KMNZ 252035Z AUTO 16014G17KT 150V210 10SM SCT050 36/18 A3007 RMK AO2 T03590180
KMNZ 252015Z AUTO 17013G19KT 10SM SCT050 36/18 A3007 RMK AO2 T03550182
KMNZ 251955Z AUTO 16014G19KT 10SM SCT050 SCT055 35/19 A3008 RMK AO2 T03530185
KMNZ 251935Z AUTO 21007G15KT 10SM SCT048 SCT055 34/20 A3009 RMK AO2 T03440195
KMNZ 251915Z AUTO 15011KT 10SM SCT046 SCT055 35/19 A3009 RMK AO2 T03490191
KMNZ 251855Z AUTO 17008KT 130V210 10SM SCT046 35/20 A3010 RMK AO2 T03470202
KMNZ 251835Z AUTO 20009KT 10SM SCT041 34/20 A3011 RMK AO2 T03410198
KMNZ 251815Z AUTO 16010KT 10SM SCT041 34/20 A3010 RMK AO2 T03370203
KMNZ 251755Z AUTO 20009KT 10SM SCT038 33/21 A3011 RMK AO2 T03310205 10337 20228
KMNZ 251735Z AUTO 17009G16KT 10SM SCT038 34/21 A3011 RMK AO2 T03370209
KMNZ 251715Z AUTO 17008G16KT 10SM CLR 33/21 A3011 RMK AO2 T03260206
KMNZ 251655Z AUTO 20010KT 10SM CLR 33/21 A3012 RMK AO2 T03280208
KMNZ 251635Z AUTO 21010KT 10SM CLR 33/21 A3012 RMK AO2 T03250210
KMNZ 251615Z AUTO 20011G15KT 10SM CLR 32/21 A3012 RMK AO2 T03160211
KMNZ 251555Z AUTO 20010G16KT 10SM CLR 31/21 A3012 RMK AO2 T03120214
KMNZ 251535Z AUTO 18012KT 10SM CLR 30/22 A3011 RMK AO2 T03010219
KMNZ 251515Z AUTO 20009KT 10SM CLR 30/22 A3012 RMK AO2 T02950219
KMNZ 251455Z AUTO 20011KT 10SM CLR 29/22 A3012 RMK AO2 T02870218
KMNZ 251435Z AUTO 22011KT 10SM CLR 28/22 A3012 RMK AO2 T02800220
KMNZ 251415Z AUTO 19012KT 10SM SCT013 28/23 A3011 RMK AO2 T02750231
KMNZ 251355Z AUTO 18010KT 10SM SCT011 27/24 A3011 RMK AO2 T02660236
KMNZ 251335Z AUTO 18007KT 10SM CLR 26/24 A3011 RMK AO2 T02560239
KMNZ 251315Z AUTO 18006KT 7SM CLR 25/24 A3011 RMK AO2 T02470239
KMNZ 251255Z AUTO 18006KT 7SM CLR 24/24 A3010 RMK AO2 T02400240
KMNZ 251235Z AUTO 18007KT 7SM CLR 23/23 A3009 RMK AO2 T02330233
KMNZ 251215Z AUTO 18007KT 7SM CLR 23/23 A3009 RMK AO2 T02300230
KMNZ 251155Z AUTO 18007KT 7SM CLR 23/23 A3008 RMK AO2 70003 T02270227 10242 20225
KMNZ 251135Z AUTO 18007KT 7SM CLR 23/23 A3008 RMK AO2 T02260226
KMNZ 251115Z AUTO 18007KT 10SM CLR 23/23 A3007 RMK AO2 T02250225
KMNZ 251055Z AUTO 18006KT 10SM CLR 23/23 A3007 RMK AO2 T02250225
KMNZ 251035Z AUTO 18007KT 10SM CLR 23/23 A3007 RMK AO2 T02250225
KMNZ 251015Z AUTO 17008KT 10SM CLR 23/22 A3006 RMK AO2 T02250223
KMNZ 250955Z AUTO 17007KT 10SM CLR 23/22 A3006 RMK AO2 T02260220
KMNZ 250935Z AUTO 17006KT 10SM CLR 23/22 A3005 RMK AO2 T02280218
KMNZ 250915Z AUTO 17006KT 10SM CLR 23/22 A3005 RMK AO2 T02280216
KMNZ 250855Z AUTO 16007KT 10SM CLR 23/22 A3005 RMK AO2 T02300215
KMNZ 250835Z AUTO 16007KT 10SM CLR 23/22 A3004 RMK AO2 T02290216
KMNZ 250815Z AUTO 16006KT 10SM CLR 23/22 A3005 RMK AO2 T02300216
KMNZ 250755Z AUTO 16005KT 10SM CLR 23/22 A3004 RMK AO2 T02330216
KMNZ 250735Z AUTO 16007KT 10SM CLR 24/22 A3004 RMK AO2 T02350218
KMNZ 250715Z AUTO 15007KT 10SM CLR 23/23 A3004 RMK AO2 T02330225
KMNZ 250655Z AUTO 16006KT 10SM CLR 23/22 A3004 RMK AO2 T02320222
KMNZ 250635Z AUTO 16005KT 10SM CLR 24/22 A3004 RMK AO2 T02360215
KMNZ 250615Z AUTO 15005KT 10SM CLR 24/21 A3004 RMK AO2 T02360211
KMNZ 250555Z AUTO 15005KT 10SM CLR 24/21 A3004 RMK AO2 T02440211 10321 20244 403410214
KMNZ 250535Z AUTO 16006KT 10SM CLR 25/21 A3004 RMK AO2 T02470212
KMNZ 250515Z AUTO 15007KT 10SM CLR 25/21 A3004 RMK AO2 T02480212
KMNZ 250455Z AUTO 16007KT 10SM CLR 25/21 A3003 RMK AO2 T02480211
KMNZ 250435Z AUTO 15006KT 10SM CLR 26/21 A3002 RMK AO2 T02550210
KMNZ 250415Z AUTO 14004KT 10SM CLR 26/21 A3002 RMK AO2 T02580210
KMNZ 250355Z AUTO 14004KT 10SM CLR 26/20 A3002 RMK AO2 T02600200
KMNZ 250335Z AUTO 14004KT 10SM CLR 26/20 A3001 RMK AO2 T02620199
KMNZ 250315Z AUTO 13004KT 10SM CLR 26/20 A3000 RMK AO2 T02620202
KMNZ 250255Z AUTO 12005KT 10SM CLR 27/20 A3000 RMK AO2 T02700197
KMNZ 250235Z AUTO 15005KT 10SM CLR 28/20 A2999 RMK AO2 T02750203
KMNZ 250215Z AUTO 12005KT 10SM CLR 28/21 A2999 RMK AO2 T02790208
KMNZ 250155Z AUTO 14006KT 10SM CLR 28/21 A2999 RMK AO2 T02810211
KMNZ 250135Z AUTO 13006KT 10SM CLR 28/21 A2999 RMK AO2 T02820213
KMNZ 250115Z AUTO 15004KT 10SM CLR 29/21 A2999 RMK AO2 T02900211
KMNZ 250055Z AUTO 16004KT 10SM CLR 29/21 A2998 RMK AO2 T02930210
KMNZ 250035Z AUTO 16008KT 10SM CLR 30/21 A2997 RMK AO2 LTG DSNT W T03000210
KMNZ 250015Z AUTO 17011KT 10SM CLR 31/21 A2997 RMK AO2 LTG DSNT NW T03060207
KMNZ 242355Z AUTO 16014KT 10SM SCT047 32/21 A2997 RMK AO2 T03220207 10341 20272
KMNZ 242335Z AUTO 15015KT 10SM SCT047 34/21 A2997 RMK AO2 T03390208
KMNZ 242315Z AUTO 18010KT 10SM CLR 34/20 A2998 RMK AO2 T03370195
KMNZ 242255Z AUTO 15012KT 10SM CLR 34/20 A2997 RMK AO2 T03400202
KMNZ 242235Z AUTO 17008G16KT 10SM CLR 34/20 A2997 RMK AO2 T03390200
KMNZ 242215Z AUTO 17010G16KT 10SM SCT040 34/21 A2997 RMK AO2 LTG DSNT SE T03350205
KMNZ 242155Z AUTO 17011KT 10SM SCT040 34/21 A2997 RMK AO2 T03380211
KMNZ 242135Z AUTO 14012G15KT 10SM CLR 34/21 A2997 RMK AO2 T03380214
KMNZ 242115Z AUTO 17011KT 10SM CLR 34/22 A2997 RMK AO2 T03390220
KMNZ 242055Z AUTO 21006KT 10SM CLR 34/21 A2997 RMK AO2 LTG DSNT S AND SW T03390209
KMNZ 242035Z AUTO 17008KT 10SM CLR 33/22 A2998 RMK AO2 LTG DSNT E AND W T03270217
KMNZ 242015Z AUTO 16008KT 10SM CLR 33/22 A2998 RMK AO2 T03250216
KMNZ 241955Z AUTO 17007KT 130V200 10SM CLR 31/22 A3000 RMK AO2 LTG DSNT E T03140215
KMNZ 241935Z AUTO 16007KT 10SM CLR 31/22 A3001 RMK AO2 T03080220
KMNZ 241915Z AUTO 15006KT 10SM SCT090 29/22 A3002 RMK AO2 LTG DSNT S T02930224
KMNZ 241855Z AUTO 12006KT 10SM BKN100 29/22 A3003 RMK AO2 LTG DSNT E T02860222
KMNZ 241835Z AUTO 11006KT 10SM SCT085 BKN100 28/22 A3004 RMK AO2 LTG DSNT E T02840224
KMNZ 241815Z AUTO 12006KT 10SM BKN085 28/23 A3004 RMK AO2 T02780225
KMNZ 241755Z AUTO 11006KT 10SM SCT085 27/23 A3005 RMK AO2 60003 T02720225 10275 20214
KMNZ 241735Z AUTO 13004KT 10SM SCT085 27/22 A3005 RMK AO2 T02720221
KMNZ 241715Z AUTO 13007KT 10SM SCT085 27/23 A3005 RMK AO2 T02730227
KMNZ 241655Z AUTO 15007KT 10SM BKN085 27/24 A3004 RMK AO2 T02720241
KMNZ 241635Z AUTO 16009KT 10SM BKN085 26/24 A3004 RMK AO2 T02640240
KMNZ 241615Z AUTO 14007KT 10SM SCT032 SCT085 SCT100 26/24 A3004 RMK AO2 T02550240
KMNZ 241555Z AUTO 14009KT 7SM -RA SCT032 BKN055 OVC095 25/23 A3003 RMK AO2 P0003 T02510233
KMNZ 241535Z AUTO 13004KT 10SM SCT065 SCT075 OVC095 26/23 A3003 RMK AO2 T02550229
KMNZ 241515Z AUTO 18006KT 10SM -DZ SCT045 SCT060 OVC095 25/23 A3002 RMK AO2 T02500229
KMNZ 241455Z AUTO 18010KT 10SM SCT070 BKN095 26/22 A3001 RMK AO2 T02550221
KMNZ 241435Z AUTO 18007KT 10SM CLR 26/22 A3001 RMK AO2 LTG DSNT NE T02550222